createdAt,value
2023-01-10T00:01:44.438Z,7.91
2023-01-10T00:05:05.284Z,7.94
2023-01-10T00:08:34.258Z,8.01
2023-01-10T00:12:15.408Z,8.07
2023-01-10T00:15:18.481Z,8.06
2023-01-10T00:18:41.150Z,8.06
2023-01-10T00:22:08.242Z,7.81
2023-01-10T00:25:20.165Z,7.87
2023-01-10T00:28:46.205Z,7.95
2023-01-10T00:32:11.105Z,7.91
2023-01-10T00:35:36.154Z,7.86
2023-01-10T00:38:58.167Z,7.81
2023-01-10T00:42:36.260Z,7.85
2023-01-10T00:45:49.936Z,7.68
2023-01-10T00:48:53.968Z,7.75
2023-01-10T00:52:17.071Z,7.66
2023-01-10T00:55:34.027Z,7.66
2023-01-10T00:58:38.182Z,7.65
2023-01-10T01:01:41.447Z,7.67
2023-01-10T01:05:07.952Z,7.79
2023-01-10T01:08:16.055Z,7.83
2023-01-10T01:11:36.993Z,7.81
2023-01-10T01:15:12.004Z,7.84
2023-01-10T01:18:27.686Z,7.75
2023-01-10T01:21:38.007Z,7.74
2023-01-10T01:24:42.239Z,7.82
2023-01-10T01:27:48.769Z,7.82
2023-01-10T01:30:55.696Z,7.84
2023-01-10T01:33:59.383Z,7.71
2023-01-10T01:37:09.680Z,7.79
2023-01-10T01:40:34.806Z,7.83
2023-01-10T01:44:12.205Z,7.88
2023-01-10T01:47:27.200Z,7.85
2023-01-10T01:50:50.170Z,7.94
2023-01-10T01:54:07.809Z,7.85
2023-01-10T01:57:24.786Z,7.91
2023-01-10T02:00:45.945Z,7.90
2023-01-10T02:04:08.936Z,7.83
2023-01-10T02:07:31.836Z,7.85
2023-01-10T02:10:56.957Z,7.89
2023-01-10T02:14:01.622Z,8.03
2023-01-10T02:17:25.872Z,8.05
2023-01-10T02:21:12.008Z,8.05
2023-01-10T02:24:36.963Z,8.06
2023-01-10T02:28:02.984Z,8.03
2023-01-10T02:31:36.110Z,7.99
2023-01-10T02:35:10.213Z,7.99
2023-01-10T02:38:25.656Z,8.00
2023-01-10T02:42:04.494Z,8.03
2023-01-10T02:45:18.531Z,8.09
2023-01-10T02:48:35.108Z,7.95
2023-01-10T02:52:10.835Z,7.88
2023-01-10T02:55:35.054Z,7.89
2023-01-10T02:59:09.382Z,7.90
2023-01-10T03:02:53.182Z,7.95
2023-01-10T03:06:41.365Z,7.90
2023-01-10T03:10:14.783Z,7.80
2023-01-10T03:13:44.828Z,7.81
2023-01-10T03:17:05.007Z,7.89
2023-01-10T03:20:15.979Z,7.91
2023-01-10T03:23:28.084Z,7.93
2023-01-10T03:26:47.225Z,7.95
2023-01-10T03:30:03.333Z,7.98
2023-01-10T03:33:19.867Z,7.89
2023-01-10T03:36:44.888Z,7.82
2023-01-10T03:40:06.880Z,7.85
2023-01-10T03:43:50.247Z,7.89
2023-01-10T03:47:16.371Z,7.77
2023-01-10T03:50:34.950Z,7.93
2023-01-10T03:53:51.669Z,7.94
2023-01-10T03:57:00.430Z,7.88
2023-01-10T04:00:09.920Z,7.86
2023-01-10T04:03:17.119Z,7.93
2023-01-10T04:06:26.152Z,7.85
2023-01-10T04:09:42.097Z,7.88
2023-01-10T04:13:06.596Z,7.98
2023-01-10T04:16:29.715Z,8.02
2023-01-10T04:19:44.453Z,7.96
2023-01-10T04:22:51.396Z,7.96
2023-01-10T04:26:17.578Z,7.92
2023-01-10T04:29:40.432Z,7.93
2023-01-10T04:32:44.532Z,7.83
2023-01-10T04:35:56.294Z,7.92
2023-01-10T04:39:13.047Z,7.78
2023-01-10T04:42:28.868Z,7.79
2023-01-10T04:45:44.693Z,7.77
2023-01-10T04:48:51.151Z,7.72
2023-01-10T04:51:59.122Z,7.78
2023-01-10T04:55:21.489Z,7.62
2023-01-10T04:58:24.546Z,7.76
2023-01-10T05:01:31.485Z,7.71
2023-01-10T05:04:38.590Z,7.81
2023-01-10T05:07:54.584Z,7.81
2023-01-10T05:11:15.485Z,7.76
2023-01-10T05:14:31.704Z,7.85
2023-01-10T05:18:05.628Z,7.94
2023-01-10T05:21:14.996Z,7.88
2023-01-10T05:24:37.446Z,7.86
2023-01-10T05:28:04.869Z,7.91
2023-01-10T05:31:30.380Z,7.71
2023-01-10T05:34:43.869Z,7.76
2023-01-10T05:38:00.354Z,7.71
2023-01-10T05:41:04.192Z,7.85
2023-01-10T05:44:11.020Z,7.88
2023-01-10T05:47:25.521Z,7.92
2023-01-10T05:50:48.438Z,7.98
2023-01-10T05:54:14.613Z,8.02
2023-01-10T05:57:19.674Z,7.88
2023-01-10T06:00:25.419Z,7.86
2023-01-10T06:03:42.313Z,7.83
2023-01-10T06:06:52.590Z,7.82
2023-01-10T06:10:02.565Z,7.69
2023-01-10T06:13:20.091Z,7.69
2023-01-10T06:16:24.459Z,7.63
2023-01-10T06:19:40.594Z,7.40
2023-01-10T06:22:48.408Z,7.54
2023-01-10T06:25:54.994Z,7.44
2023-01-10T06:29:03.414Z,7.29
2023-01-10T06:32:19.478Z,7.31
2023-01-10T06:35:46.178Z,7.39
2023-01-10T06:39:04.329Z,7.28
2023-01-10T06:42:28.069Z,7.25
2023-01-10T06:45:44.972Z,7.17
2023-01-10T06:49:08.257Z,7.02
2023-01-10T06:53:15.761Z,7.12
2023-01-10T06:57:00.557Z,7.14
2023-01-10T07:00:22.215Z,6.93
2023-01-10T07:03:52.744Z,7.01
2023-01-10T07:07:37.744Z,7.00
2023-01-10T07:11:45.792Z,7.03
2023-01-10T07:15:03.114Z,7.01
2023-01-10T07:23:20.884Z,7.06
2023-01-10T07:26:25.165Z,7.06
2023-01-10T07:29:41.598Z,7.05
2023-01-10T07:33:06.974Z,7.04
2023-01-10T07:36:22.405Z,7.12
2023-01-10T07:39:46.793Z,7.06
2023-01-10T07:42:58.473Z,6.98
2023-01-10T07:46:04.155Z,6.86
2023-01-10T07:49:12.291Z,7.03
2023-01-10T07:52:37.778Z,7.07
2023-01-10T07:56:23.221Z,7.11
2023-01-10T07:59:38.977Z,7.13
2023-01-10T08:02:54.464Z,7.10
2023-01-10T08:06:01.448Z,7.01
2023-01-10T08:09:06.093Z,7.00
2023-01-10T08:16:45.735Z,6.88
2023-01-10T08:20:00.148Z,6.99
2023-01-10T08:23:04.740Z,6.94
2023-01-10T08:26:40.491Z,6.77
2023-01-10T08:29:43.323Z,6.90
2023-01-10T08:32:56.839Z,6.91
2023-01-10T08:36:33.362Z,6.79
2023-01-10T08:39:41.452Z,6.79
2023-01-10T08:43:02.940Z,6.71
2023-01-10T08:46:39.388Z,6.80
2023-01-10T08:49:44.831Z,6.83
2023-01-10T08:53:39.213Z,6.69
2023-01-10T08:56:45.720Z,6.64
2023-01-10T09:00:17.081Z,6.70
2023-01-10T09:04:05.541Z,6.69
2023-01-10T09:07:09.984Z,6.68
2023-01-10T09:10:17.020Z,6.58
2023-01-10T09:13:51.467Z,6.65
2023-01-10T09:17:41.948Z,6.55
2023-01-10T09:25:42.126Z,6.46
2023-01-10T09:29:05.918Z,6.51
2023-01-10T09:32:29.666Z,6.45
2023-01-10T09:36:02.741Z,6.44
2023-01-10T09:40:09.084Z,6.32
2023-01-10T09:44:14.908Z,6.37
2023-01-10T09:48:29.885Z,6.41
2023-01-10T09:52:00.837Z,6.24
2023-01-10T09:55:47.912Z,6.20
2023-01-10T09:59:43.624Z,6.20
2023-01-10T10:03:14.390Z,6.28
2023-01-10T10:06:54.969Z,6.20
2023-01-10T10:10:25.749Z,6.15
2023-01-10T10:14:16.110Z,6.13
2023-01-10T10:17:57.650Z,6.23
2023-01-10T10:26:35.931Z,6.18
2023-01-10T11:02:22.669Z,6.37
2023-01-10T11:16:40.338Z,6.31
2023-01-10T11:20:34.957Z,6.33
2023-01-10T11:24:00.751Z,6.27
2023-01-10T11:27:57.828Z,6.42
2023-01-10T11:31:39.887Z,6.38
2023-01-10T11:35:00.204Z,6.45
2023-01-10T11:38:55.659Z,6.46
2023-01-10T11:42:30.662Z,6.42
2023-01-10T11:45:36.391Z,6.55
2023-01-10T11:49:12.827Z,6.58
2023-01-10T11:52:40.717Z,6.52
2023-01-10T11:55:54.822Z,6.48
2023-01-10T11:59:26.556Z,6.51
2023-01-10T12:02:37.736Z,6.68
2023-01-10T12:29:30.592Z,6.76
2023-01-10T12:32:53.164Z,6.64
2023-01-10T12:36:07.079Z,6.73
2023-01-10T12:39:20.994Z,6.72
2023-01-10T12:43:02.982Z,6.66
2023-01-10T12:49:32.394Z,6.71
2023-01-10T12:52:56.631Z,6.87
2023-01-10T12:56:17.037Z,6.83
2023-01-10T12:59:39.008Z,6.84
2023-01-10T13:02:51.908Z,6.84
2023-01-10T13:06:03.775Z,6.86
2023-01-10T13:09:26.818Z,6.77
2023-01-10T13:12:44.663Z,6.93
2023-01-10T13:16:02.742Z,6.82
2023-01-10T13:19:14.695Z,6.81
2023-01-10T13:23:28.979Z,6.79
2023-01-10T13:27:05.845Z,6.99
2023-01-10T13:30:53.199Z,6.89
2023-01-10T13:34:23.227Z,6.90
2023-01-10T13:37:46.279Z,7.02
2023-01-10T13:41:33.298Z,7.04
2023-01-10T13:45:13.191Z,6.98
2023-01-10T13:49:23.608Z,7.00
2023-01-10T13:52:49.231Z,6.98
2023-01-10T13:56:13.652Z,7.07
2023-01-10T13:59:43.459Z,7.12
2023-01-10T14:02:54.284Z,7.07
2023-01-10T14:06:30.563Z,7.09
2023-01-10T14:10:08.596Z,6.95
2023-01-10T14:13:28.391Z,7.00
2023-01-10T14:20:07.341Z,7.17
2023-01-10T14:23:16.584Z,6.94
2023-01-10T14:26:44.872Z,7.07
2023-01-10T14:29:57.661Z,7.02
2023-01-10T14:33:15.545Z,7.03
2023-01-10T14:36:25.682Z,7.00
2023-01-10T14:40:04.504Z,7.13
2023-01-10T14:44:21.001Z,7.03
2023-01-10T14:48:24.176Z,7.04
2023-01-10T14:51:31.556Z,7.05
2023-01-10T14:55:04.591Z,6.90
2023-01-10T14:58:39.089Z,7.02
2023-01-10T15:01:51.292Z,7.05
2023-01-10T15:05:16.055Z,6.89
2023-01-10T15:08:28.552Z,7.01
2023-01-10T15:11:32.844Z,6.84
2023-01-10T15:14:47.181Z,6.91
2023-01-10T15:18:08.886Z,6.94
2023-01-10T15:21:13.992Z,7.09
2023-01-10T15:24:25.529Z,6.99
2023-01-10T15:27:42.560Z,6.86
2023-01-10T15:30:53.742Z,6.82
2023-01-10T15:34:09.713Z,6.96
2023-01-10T15:37:27.558Z,6.65
2023-01-10T15:40:48.076Z,6.72
2023-01-10T15:44:59.875Z,6.93
2023-01-10T15:48:38.213Z,6.81
2023-01-10T15:51:54.479Z,6.78
2023-01-10T15:55:56.571Z,6.73
2023-01-10T15:59:45.005Z,6.84
2023-01-10T16:02:51.519Z,6.81
2023-01-10T16:06:14.453Z,6.82
2023-01-10T16:09:33.360Z,6.79
2023-01-10T16:13:10.382Z,6.85
2023-01-10T16:16:27.137Z,6.97
2023-01-10T16:19:40.490Z,6.92
2023-01-10T16:23:01.300Z,6.93
2023-01-10T16:26:25.659Z,7.08
2023-01-10T16:29:46.681Z,7.03
2023-01-10T16:33:00.432Z,7.08
2023-01-10T16:36:25.863Z,7.04
2023-01-10T16:39:41.899Z,7.06
2023-01-10T16:43:46.112Z,7.06
2023-01-10T16:46:59.591Z,6.93
2023-01-10T16:50:07.674Z,6.99
2023-01-10T16:53:23.621Z,7.14
2023-01-10T16:56:28.584Z,7.18
2023-01-10T16:59:31.802Z,7.04
2023-01-10T17:02:55.374Z,7.26
2023-01-10T17:06:18.233Z,7.24
2023-01-10T17:09:31.276Z,7.18
2023-01-10T17:12:49.319Z,6.95
2023-01-10T17:16:08.064Z,6.93
2023-01-10T17:19:26.879Z,7.10
2023-01-10T17:22:45.523Z,7.03
2023-01-10T17:26:02.553Z,7.15
2023-01-10T17:29:06.008Z,6.99
2023-01-10T17:32:11.791Z,7.03
2023-01-10T17:35:38.086Z,7.03
2023-01-10T17:38:54.631Z,7.00
2023-01-10T17:41:58.283Z,7.13
2023-01-10T17:45:15.472Z,7.19
2023-01-10T17:48:51.538Z,7.00
2023-01-10T17:52:10.508Z,7.03
2023-01-10T17:55:33.440Z,7.12
2023-01-10T17:59:07.668Z,7.12
2023-01-10T18:02:24.616Z,7.10
2023-01-10T18:05:50.638Z,7.05
2023-01-10T18:09:18.168Z,7.06
2023-01-10T18:12:30.301Z,7.16
2023-01-10T18:15:54.589Z,7.14
2023-01-10T18:19:01.466Z,7.07
2023-01-10T18:22:29.078Z,7.06
2023-01-10T18:25:35.606Z,7.09
2023-01-10T18:28:45.878Z,7.09
2023-01-10T18:32:01.187Z,7.18
2023-01-10T18:35:22.296Z,7.08
2023-01-10T18:38:25.232Z,7.01
2023-01-10T18:41:32.265Z,7.15
2023-01-10T18:44:46.209Z,7.01
2023-01-10T18:48:12.781Z,7.04
2023-01-10T18:51:19.595Z,7.07
2023-01-10T18:54:28.966Z,7.19
2023-01-10T18:57:48.500Z,7.00
2023-01-10T19:00:57.266Z,6.94
2023-01-10T19:04:08.479Z,6.79
2023-01-10T19:07:28.436Z,7.04
2023-01-10T19:11:11.813Z,7.11
2023-01-10T19:14:20.768Z,7.06
2023-01-10T19:17:34.256Z,6.98
2023-01-10T19:20:59.736Z,7.05
2023-01-10T19:24:32.979Z,6.96
2023-01-10T19:27:45.814Z,7.00
2023-01-10T19:31:06.280Z,6.73
2023-01-10T19:34:25.259Z,6.89
2023-01-10T19:37:45.338Z,6.96
2023-01-10T19:40:58.463Z,6.95
2023-01-10T19:44:26.187Z,6.96
2023-01-10T19:47:52.155Z,6.88
2023-01-10T19:50:55.857Z,7.06
2023-01-10T19:54:24.998Z,6.95
2023-01-10T19:57:58.183Z,6.93
2023-01-10T20:01:12.367Z,7.02
2023-01-10T20:04:35.322Z,6.91
2023-01-10T20:08:05.256Z,6.97
2023-01-10T20:11:19.267Z,6.98
2023-01-10T20:14:42.014Z,7.04
2023-01-10T20:18:06.093Z,7.05
2023-01-10T20:21:11.970Z,7.03
2023-01-10T20:24:21.095Z,7.02
2023-01-10T20:27:24.649Z,6.97
2023-01-10T20:30:28.095Z,6.98
2023-01-10T20:33:38.477Z,6.98
2023-01-10T20:36:44.507Z,7.03
2023-01-10T20:39:58.377Z,6.96
2023-01-10T20:43:15.188Z,7.08
2023-01-10T20:46:24.578Z,7.03
2023-01-10T20:49:28.375Z,6.96
2023-01-10T20:52:49.769Z,7.06
2023-01-10T20:56:11.840Z,6.90
2023-01-10T20:59:29.532Z,7.16
2023-01-10T21:02:42.441Z,7.07
2023-01-10T21:06:07.952Z,7.14
2023-01-10T21:09:46.204Z,6.90
2023-01-10T21:13:05.061Z,6.94
2023-01-10T21:16:23.755Z,6.62
2023-01-10T21:19:46.854Z,6.90
2023-01-10T21:23:09.888Z,6.84
2023-01-10T21:26:31.774Z,6.89
2023-01-10T21:29:54.860Z,6.88
2023-01-10T21:33:04.799Z,6.93
2023-01-10T21:36:08.638Z,6.83
2023-01-10T21:39:18.456Z,6.84
2023-01-10T21:42:42.883Z,6.83
2023-01-10T21:46:00.468Z,6.87
2023-01-10T21:49:05.310Z,6.71
2023-01-10T21:52:20.996Z,6.70
2023-01-10T21:55:31.485Z,6.56
2023-01-10T21:58:35.519Z,6.40
2023-01-10T22:01:46.801Z,6.46
2023-01-10T22:04:59.800Z,6.33
2023-01-10T22:08:04.107Z,6.38
2023-01-10T22:11:20.651Z,6.36
2023-01-10T22:14:26.911Z,6.24
2023-01-10T22:17:54.804Z,6.20
2023-01-10T22:21:10.969Z,6.31
2023-01-10T22:24:37.736Z,6.20
2023-01-10T22:28:05.635Z,5.90
2023-01-10T22:31:32.452Z,5.96
2023-01-10T22:34:42.331Z,6.05
2023-01-10T22:38:08.747Z,5.96
2023-01-10T22:41:29.002Z,5.87
2023-01-10T22:44:44.695Z,5.90
2023-01-10T22:48:06.400Z,5.91
2023-01-10T22:51:09.876Z,5.72
2023-01-10T22:54:13.363Z,5.77
2023-01-10T22:57:23.522Z,5.86
2023-01-10T23:00:26.883Z,5.73
2023-01-10T23:03:34.370Z,5.75
2023-01-10T23:06:55.377Z,5.76
2023-01-10T23:10:29.112Z,5.67
2023-01-10T23:13:43.590Z,5.66
2023-01-10T23:16:53.466Z,5.49
2023-01-10T23:20:10.429Z,5.48
2023-01-10T23:23:42.560Z,5.43
2023-01-10T23:27:05.656Z,5.36
2023-01-10T23:30:19.484Z,5.17
2023-01-10T23:33:27.502Z,5.19
2023-01-10T23:36:30.461Z,5.20
2023-01-10T23:39:49.056Z,5.29
2023-01-10T23:43:13.735Z,5.23
2023-01-10T23:46:30.932Z,5.16
2023-01-10T23:49:37.214Z,5.04
2023-01-10T23:52:45.282Z,5.09
2023-01-10T23:55:53.470Z,5.07
2023-01-10T23:59:09.778Z,4.80
